createdAt,value
2017-05-10T00:01:34.090Z,63.70
2017-05-10T00:04:03.650Z,64.40
2017-05-10T00:06:33.178Z,63.50
2017-05-10T00:09:03.451Z,63.80
2017-05-10T00:11:33.186Z,63.80
2017-05-10T00:14:02.705Z,65.10
2017-05-10T00:16:32.274Z,65.10
2017-05-10T00:19:01.799Z,65.10
2017-05-10T00:21:31.330Z,64.80
2017-05-10T00:24:01.634Z,64.20
2017-05-10T00:26:31.201Z,63.90
2017-05-10T00:29:00.784Z,63.30
2017-05-10T00:33:58.157Z,63.60
2017-05-10T00:36:27.685Z,63.70
2017-05-10T00:38:57.549Z,63.90
2017-05-10T00:41:27.180Z,64.90
2017-05-10T00:43:57.453Z,65.30
2017-05-10T00:46:26.973Z,65.50
2017-05-10T00:48:56.510Z,65.70
2017-05-10T00:51:26.032Z,65.80
2017-05-10T00:53:55.633Z,66.10
2017-05-10T00:56:25.156Z,66.10
2017-05-10T00:58:54.705Z,65.80
2017-05-10T01:01:24.229Z,66.00
2017-05-10T01:03:54.513Z,67.10
2017-05-10T01:06:24.037Z,65.70
2017-05-10T01:08:53.573Z,65.60
2017-05-10T01:11:23.100Z,65.60
2017-05-10T01:13:52.653Z,65.50
2017-05-10T01:16:22.181Z,65.00
2017-05-10T01:18:52.461Z,65.30
2017-05-10T01:21:21.976Z,65.40
2017-05-10T01:23:51.541Z,65.00
2017-05-10T01:26:21.060Z,65.10
2017-05-10T01:28:50.589Z,64.70
2017-05-10T01:31:20.112Z,65.20
2017-05-10T01:33:50.412Z,65.00
2017-05-10T01:36:19.956Z,65.10
2017-05-10T01:38:50.285Z,65.30
2017-05-10T01:41:19.804Z,64.80
2017-05-10T01:43:49.329Z,64.60
2017-05-10T01:46:18.860Z,63.90
2017-05-10T01:48:48.393Z,64.00
2017-05-10T01:51:18.700Z,64.70
2017-05-10T01:53:48.540Z,65.00
2017-05-10T01:56:18.097Z,64.80
2017-05-10T01:58:47.661Z,63.90
2017-05-10T02:01:17.264Z,64.20
2017-05-10T02:03:46.784Z,63.70
2017-05-10T02:06:16.312Z,64.50
2017-05-10T02:08:45.868Z,64.20
2017-05-10T02:11:15.388Z,64.60
2017-05-10T02:13:44.952Z,65.80
2017-05-10T02:16:14.484Z,65.80
2017-05-10T02:18:44.012Z,65.90
2017-05-10T02:21:13.547Z,65.90
2017-05-10T02:23:43.080Z,66.00
2017-05-10T02:28:42.556Z,65.60
2017-05-10T02:31:12.427Z,65.70
2017-05-10T02:33:41.950Z,66.70
2017-05-10T02:36:11.500Z,66.70
2017-05-10T02:38:41.053Z,66.20
2017-05-10T02:41:10.593Z,66.90
2017-05-10T02:43:40.112Z,66.10
2017-05-10T02:46:09.640Z,66.00
2017-05-10T02:48:39.915Z,66.00
2017-05-10T02:51:09.452Z,66.10
2017-05-10T02:53:38.977Z,66.10
2017-05-10T02:56:09.257Z,66.20
2017-05-10T02:58:38.839Z,66.20
2017-05-10T03:01:08.399Z,65.20
2017-05-10T03:03:37.979Z,64.50
2017-05-10T03:06:07.515Z,64.20
2017-05-10T03:08:37.055Z,64.00
2017-05-10T03:11:06.603Z,63.90
2017-05-10T03:13:36.128Z,63.90
2017-05-10T03:16:06.427Z,65.40
2017-05-10T03:18:35.947Z,65.10
2017-05-10T03:21:05.495Z,65.10
2017-05-10T03:23:35.331Z,65.80
2017-05-10T03:26:04.864Z,65.10
2017-05-10T03:28:34.387Z,65.20
2017-05-10T03:31:04.671Z,64.10
2017-05-10T03:33:34.207Z,63.60
2017-05-10T03:36:04.511Z,63.60
2017-05-10T03:38:34.026Z,63.60
2017-05-10T03:41:03.579Z,63.90
2017-05-10T03:43:33.108Z,64.10
2017-05-10T03:46:02.641Z,63.60
2017-05-10T03:48:32.155Z,63.80
2017-05-10T03:51:01.690Z,63.30
2017-05-10T03:53:31.246Z,63.50
2017-05-10T03:56:00.814Z,63.40
2017-05-10T03:58:30.334Z,62.70
2017-05-10T04:00:59.855Z,63.00
2017-05-10T04:03:29.394Z,63.20
2017-05-10T04:05:59.682Z,62.50
2017-05-10T04:08:29.235Z,62.40
2017-05-10T04:10:59.870Z,62.00
2017-05-10T04:13:30.454Z,62.10
2017-05-10T04:15:59.986Z,62.00
2017-05-10T04:18:30.283Z,62.80
2017-05-10T04:20:59.810Z,62.20
2017-05-10T04:23:30.114Z,62.80
2017-05-10T04:25:59.722Z,62.80
2017-05-10T04:28:29.326Z,62.30
2017-05-10T04:30:59.754Z,61.80
2017-05-10T04:33:29.290Z,61.60
2017-05-10T04:35:59.582Z,61.90
2017-05-10T04:38:29.134Z,62.50
2017-05-10T04:40:58.762Z,62.90
2017-05-10T04:43:28.553Z,62.10
2017-05-10T04:45:58.302Z,62.30
2017-05-10T04:48:27.998Z,62.60
2017-05-10T04:50:57.526Z,62.30
2017-05-10T04:53:27.073Z,62.90
2017-05-10T04:55:56.673Z,63.30
2017-05-10T04:58:26.222Z,63.30
2017-05-10T05:00:56.457Z,62.90
2017-05-10T05:03:26.001Z,63.90
2017-05-10T05:05:56.621Z,63.90
2017-05-10T05:08:26.175Z,64.50
2017-05-10T05:10:56.433Z,64.60
2017-05-10T05:13:25.961Z,65.20
2017-05-10T05:15:56.230Z,64.40
2017-05-10T05:18:25.769Z,64.10
2017-05-10T05:20:56.149Z,64.80
2017-05-10T05:23:25.702Z,64.90
2017-05-10T05:25:55.225Z,65.10
2017-05-10T05:28:25.509Z,65.10
2017-05-10T05:30:55.125Z,65.50
2017-05-10T05:33:24.677Z,65.20
2017-05-10T05:35:54.201Z,65.20
2017-05-10T05:38:23.789Z,65.00
2017-05-10T05:40:53.324Z,64.70
2017-05-10T05:43:22.861Z,64.30
2017-05-10T05:45:52.390Z,63.80
2017-05-10T05:48:22.653Z,64.50
2017-05-10T05:50:52.196Z,62.60
2017-05-10T05:53:22.461Z,59.70
2017-05-10T05:55:52.012Z,59.20
2017-05-10T05:58:22.405Z,59.70
2017-05-10T06:00:51.969Z,60.10
2017-05-10T06:03:22.237Z,59.30
2017-05-10T06:05:51.774Z,60.00
2017-05-10T06:08:21.345Z,59.90
2017-05-10T06:10:50.865Z,59.00
2017-05-10T06:13:21.550Z,57.90
2017-05-10T06:15:51.068Z,58.40
2017-05-10T06:18:20.605Z,57.40
2017-05-10T06:20:50.140Z,58.20
2017-05-10T06:23:19.657Z,57.60
2017-05-10T06:25:49.948Z,56.60
2017-05-10T06:28:19.465Z,55.90
2017-05-10T06:30:49.005Z,55.30
2017-05-10T06:33:18.557Z,55.40
2017-05-10T06:35:48.084Z,56.00
2017-05-10T06:38:17.608Z,55.60
2017-05-10T06:40:47.900Z,56.50
2017-05-10T06:43:17.428Z,56.60
2017-05-10T06:45:47.700Z,57.20
2017-05-10T06:48:17.236Z,55.70
2017-05-10T06:50:46.761Z,56.80
2017-05-10T06:53:17.048Z,56.60
2017-05-10T06:55:46.581Z,56.80
2017-05-10T06:58:16.900Z,55.40
2017-05-10T07:00:46.396Z,55.90
2017-05-10T07:03:15.945Z,54.40
2017-05-10T07:05:45.480Z,55.10
2017-05-10T07:08:15.032Z,53.30
2017-05-10T07:10:45.296Z,54.40
2017-05-10T07:13:14.833Z,54.10
2017-05-10T07:15:44.355Z,53.10
2017-05-10T07:18:14.656Z,52.50
2017-05-10T07:20:45.256Z,52.70
2017-05-10T07:23:14.799Z,52.50
2017-05-10T07:25:44.324Z,51.70
2017-05-10T07:28:14.605Z,51.70
2017-05-10T07:30:44.152Z,52.40
2017-05-10T07:33:14.420Z,51.90
2017-05-10T07:35:44.203Z,52.00
2017-05-10T07:38:13.732Z,52.40
2017-05-10T07:40:43.272Z,51.70
2017-05-10T07:43:12.812Z,52.00
2017-05-10T07:45:43.084Z,52.70
2017-05-10T07:48:12.639Z,52.40
2017-05-10T07:50:42.172Z,50.80
2017-05-10T07:53:11.711Z,52.60
2017-05-10T07:55:41.255Z,52.20
2017-05-10T07:58:10.812Z,51.30
2017-05-10T08:00:40.345Z,51.00
2017-05-10T08:03:10.632Z,50.50
2017-05-10T08:05:40.187Z,49.00
2017-05-10T08:08:10.460Z,48.10
2017-05-10T08:10:40.256Z,47.90
2017-05-10T08:13:09.759Z,47.80
2017-05-10T08:15:39.296Z,45.10
2017-05-10T08:18:08.847Z,44.70
2017-05-10T08:20:38.387Z,46.90
2017-05-10T08:23:07.927Z,46.10
2017-05-10T08:25:37.476Z,44.80
2017-05-10T08:28:07.012Z,41.50
2017-05-10T08:30:36.555Z,43.20
2017-05-10T08:33:06.899Z,43.00
2017-05-10T08:35:36.444Z,44.10
2017-05-10T08:38:06.244Z,42.10
2017-05-10T08:40:35.759Z,41.90
2017-05-10T08:43:05.375Z,41.80
2017-05-10T08:45:34.891Z,41.20
2017-05-10T08:48:04.420Z,40.70
2017-05-10T08:50:34.808Z,40.10
2017-05-10T08:53:04.300Z,40.30
2017-05-10T08:55:33.839Z,40.10
2017-05-10T08:58:04.119Z,40.00
2017-05-10T09:00:33.667Z,40.70
2017-05-10T09:03:03.935Z,39.50
2017-05-10T09:05:33.511Z,39.20
2017-05-10T09:08:03.786Z,43.20
2017-05-10T09:10:33.367Z,42.80
2017-05-10T09:13:03.320Z,41.50
2017-05-10T09:15:32.927Z,41.20
2017-05-10T09:18:02.423Z,40.40
2017-05-10T09:20:31.964Z,41.50
2017-05-10T09:23:02.258Z,41.90
2017-05-10T09:25:31.791Z,41.50
2017-05-10T09:28:02.083Z,41.50
2017-05-10T09:30:31.619Z,42.40
2017-05-10T09:33:01.177Z,41.60
2017-05-10T09:35:30.723Z,40.80
2017-05-10T09:38:01.006Z,41.40
2017-05-10T09:40:30.559Z,42.30
2017-05-10T09:43:00.847Z,41.00
2017-05-10T09:45:30.458Z,38.70
2017-05-10T09:47:59.989Z,39.50
2017-05-10T09:50:29.490Z,40.00
2017-05-10T09:52:59.786Z,39.70
2017-05-10T09:55:29.326Z,41.50
2017-05-10T09:57:59.615Z,39.90
2017-05-10T10:00:29.146Z,40.70
2017-05-10T10:02:59.426Z,39.40
2017-05-10T10:05:28.967Z,40.70
2017-05-10T10:07:59.262Z,39.80
2017-05-10T10:10:28.794Z,39.60
2017-05-10T10:12:58.326Z,40.30
2017-05-10T10:15:27.870Z,40.00
2017-05-10T10:17:57.403Z,39.70
2017-05-10T10:20:26.966Z,39.60
2017-05-10T10:22:56.504Z,40.70
2017-05-10T10:25:26.042Z,40.30
2017-05-10T10:27:56.317Z,38.80
2017-05-10T10:30:26.286Z,38.70
2017-05-10T10:32:56.561Z,36.50
2017-05-10T10:35:26.112Z,37.80
2017-05-10T10:37:56.446Z,38.40
2017-05-10T10:40:25.957Z,37.60
2017-05-10T10:42:55.493Z,37.90
2017-05-10T10:45:25.025Z,38.90
2017-05-10T10:47:55.325Z,37.60
2017-05-10T10:50:24.853Z,36.90
2017-05-10T10:52:54.389Z,37.00
2017-05-10T10:55:23.929Z,38.00
2017-05-10T10:57:53.453Z,37.40
2017-05-10T11:00:22.978Z,39.40
2017-05-10T11:02:52.528Z,38.00
2017-05-10T11:05:22.053Z,37.60
2017-05-10T11:07:51.609Z,35.10
2017-05-10T11:10:21.902Z,37.50
2017-05-10T11:12:51.457Z,37.30
2017-05-10T11:15:21.009Z,37.90
2017-05-10T11:17:50.769Z,36.90
2017-05-10T11:20:20.425Z,38.60
2017-05-10T11:22:50.065Z,37.50
2017-05-10T11:25:20.432Z,36.20
2017-05-10T11:30:28.684Z,35.70
2017-05-10T11:32:58.242Z,36.30
2017-05-10T11:35:27.770Z,34.70
2017-05-10T11:37:57.317Z,35.60
2017-05-10T11:40:26.857Z,35.90
2017-05-10T11:42:56.412Z,35.70
2017-05-10T11:45:25.957Z,34.40
2017-05-10T11:47:56.237Z,35.40
2017-05-10T11:50:25.785Z,34.20
2017-05-10T11:52:56.082Z,35.60
2017-05-10T11:55:25.612Z,35.50
2017-05-10T11:57:56.016Z,36.20
2017-05-10T12:00:25.561Z,33.20
2017-05-10T12:02:55.105Z,35.60
2017-05-10T12:05:24.632Z,35.60
2017-05-10T12:07:55.156Z,35.60
2017-05-10T12:10:24.701Z,35.70
2017-05-10T12:12:54.240Z,33.80
2017-05-10T12:15:23.777Z,33.60
2017-05-10T12:17:54.076Z,32.50
2017-05-10T12:20:23.616Z,32.80
2017-05-10T12:22:53.916Z,33.90
2017-05-10T12:25:23.452Z,33.50
2017-05-10T12:27:52.996Z,32.00
2017-05-10T12:30:22.541Z,35.00
2017-05-10T12:32:52.093Z,35.90
2017-05-10T12:35:21.632Z,33.90
2017-05-10T12:37:51.192Z,33.80
2017-05-10T12:40:20.724Z,34.30
2017-05-10T12:42:50.279Z,34.90
2017-05-10T12:45:20.556Z,35.00
2017-05-10T12:47:50.108Z,34.10
2017-05-10T12:50:20.388Z,34.10
2017-05-10T12:52:49.951Z,34.90
2017-05-10T12:55:19.495Z,33.90
2017-05-10T12:57:49.031Z,35.20
2017-05-10T13:00:18.576Z,35.20
2017-05-10T13:02:48.111Z,34.50
2017-05-10T13:05:17.651Z,35.80
2017-05-10T13:07:47.191Z,33.50
2017-05-10T13:10:16.752Z,35.20
2017-05-10T13:12:46.291Z,35.10
2017-05-10T13:15:15.851Z,36.50
2017-05-10T13:17:45.391Z,35.80
2017-05-10T13:20:15.683Z,36.70
2017-05-10T13:22:45.231Z,35.20
2017-05-10T13:25:14.759Z,35.00
2017-05-10T13:27:44.319Z,34.90
2017-05-10T13:30:13.860Z,34.60
2017-05-10T13:32:43.395Z,36.20
2017-05-10T13:35:12.931Z,34.90
2017-05-10T13:37:42.463Z,35.20
2017-05-10T13:40:12.019Z,34.30
2017-05-10T13:42:41.555Z,35.50
2017-05-10T13:45:11.835Z,36.00
2017-05-10T13:47:41.355Z,35.80
2017-05-10T13:50:10.943Z,35.50
2017-05-10T13:52:40.479Z,35.50
2017-05-10T13:55:10.027Z,35.60
2017-05-10T13:57:39.563Z,35.00
2017-05-10T14:00:09.127Z,36.10
2017-05-10T14:02:38.655Z,37.30
2017-05-10T14:05:08.206Z,35.00
2017-05-10T14:07:37.731Z,34.60
2017-05-10T14:10:08.018Z,35.00
2017-05-10T14:12:37.570Z,34.80
2017-05-10T14:15:07.130Z,34.00
2017-05-10T14:17:36.658Z,33.40
2017-05-10T14:20:06.939Z,34.80
2017-05-10T14:22:36.471Z,34.90
2017-05-10T14:25:06.022Z,36.00
2017-05-10T14:27:35.555Z,34.30
2017-05-10T14:30:05.106Z,35.00
2017-05-10T14:32:35.375Z,32.70
2017-05-10T14:35:04.915Z,33.40
2017-05-10T14:37:34.450Z,35.80
2017-05-10T14:40:04.015Z,36.20
2017-05-10T14:42:33.542Z,34.50
2017-05-10T14:45:03.830Z,35.90
2017-05-10T14:47:33.354Z,35.10
2017-05-10T14:50:02.890Z,34.70
2017-05-10T14:52:33.158Z,34.60
2017-05-10T14:55:02.695Z,36.50
2017-05-10T14:57:32.226Z,36.50
2017-05-10T15:00:02.522Z,35.00
2017-05-10T15:02:32.046Z,35.20
2017-05-10T15:05:02.330Z,35.50
2017-05-10T15:07:31.878Z,36.30
2017-05-10T15:10:02.159Z,36.00
2017-05-10T15:12:31.686Z,35.40
2017-05-10T15:15:01.226Z,36.30
2017-05-10T15:17:30.870Z,36.40
2017-05-10T15:20:00.678Z,35.70
2017-05-10T15:22:30.318Z,35.60
2017-05-10T15:24:59.854Z,35.50
2017-05-10T15:27:29.409Z,37.00
2017-05-10T15:29:59.017Z,36.60
2017-05-10T15:32:28.525Z,36.10
2017-05-10T15:34:58.817Z,36.20
2017-05-10T15:37:28.353Z,36.80
2017-05-10T15:39:57.894Z,35.70
2017-05-10T15:42:28.174Z,36.40
2017-05-10T15:44:58.691Z,36.30
2017-05-10T15:47:28.230Z,36.40
2017-05-10T15:49:58.501Z,36.50
2017-05-10T15:52:28.037Z,35.70
2017-05-10T15:54:57.561Z,36.40
2017-05-10T15:57:27.089Z,35.80
2017-05-10T15:59:56.860Z,36.70
2017-05-10T16:02:26.485Z,36.40
2017-05-10T16:04:56.025Z,35.90
2017-05-10T16:07:25.557Z,35.60
2017-05-10T16:09:55.149Z,36.00
2017-05-10T16:12:24.653Z,35.90
2017-05-10T16:14:54.384Z,35.60
2017-05-10T16:17:23.950Z,36.70
2017-05-10T16:19:53.473Z,36.10
2017-05-10T16:22:23.029Z,35.60
2017-05-10T16:24:52.548Z,35.60
2017-05-10T16:27:22.941Z,35.50
2017-05-10T16:29:52.462Z,36.60
2017-05-10T16:32:22.024Z,35.50
2017-05-10T16:34:51.969Z,36.10
2017-05-10T16:37:21.524Z,36.40
2017-05-10T16:39:51.049Z,35.50
2017-05-10T16:42:20.602Z,36.00
2017-05-10T16:44:50.129Z,36.20
2017-05-10T16:47:19.656Z,36.60
2017-05-10T16:49:49.197Z,36.50
2017-05-10T16:52:18.737Z,36.20
2017-05-10T16:54:49.069Z,36.80
2017-05-10T16:57:18.580Z,36.60
2017-05-10T16:59:48.124Z,37.00
2017-05-10T17:02:17.660Z,36.80
2017-05-10T17:04:47.193Z,37.40
2017-05-10T17:07:16.757Z,36.60
2017-05-10T17:09:46.513Z,36.20
2017-05-10T17:12:16.077Z,36.90
2017-05-10T17:14:45.605Z,37.50
2017-05-10T17:17:15.884Z,36.90
2017-05-10T17:19:45.413Z,37.20
2017-05-10T17:22:14.968Z,38.00
2017-05-10T17:24:44.504Z,37.30
2017-05-10T17:27:14.036Z,38.10
2017-05-10T17:29:43.576Z,38.60
2017-05-10T17:32:13.113Z,38.60
2017-05-10T17:34:42.652Z,38.10
2017-05-10T17:37:12.940Z,37.40
2017-05-10T17:39:42.471Z,37.90
2017-05-10T17:42:12.024Z,37.60
2017-05-10T17:44:41.555Z,38.40
2017-05-10T17:47:11.108Z,40.40
2017-05-10T17:49:41.384Z,40.70
2017-05-10T17:52:11.024Z,40.30
2017-05-10T17:54:41.300Z,41.20
2017-05-10T17:57:10.859Z,40.80
2017-05-10T17:59:41.135Z,40.90
2017-05-10T18:02:10.687Z,40.40
2017-05-10T18:04:40.964Z,41.20
2017-05-10T18:07:10.517Z,41.90
2017-05-10T18:09:40.797Z,42.50
2017-05-10T18:12:10.356Z,42.50
2017-05-10T18:14:40.632Z,42.80
2017-05-10T18:17:10.179Z,42.70
2017-05-10T18:19:40.459Z,43.20
2017-05-10T18:22:10.019Z,43.50
2017-05-10T18:24:39.560Z,43.60
2017-05-10T18:27:09.116Z,44.00
2017-05-10T18:29:39.399Z,44.40
2017-05-10T18:32:08.932Z,44.50
2017-05-10T18:34:38.488Z,44.00
2017-05-10T18:37:08.023Z,44.30
2017-05-10T18:39:37.571Z,45.30
2017-05-10T18:42:07.099Z,47.30
2017-05-10T18:44:36.639Z,47.10
2017-05-10T18:47:06.192Z,47.60
2017-05-10T18:49:35.727Z,47.40
2017-05-10T18:52:06.231Z,47.20
2017-05-10T18:54:35.767Z,46.80
2017-05-10T18:57:05.323Z,47.20
2017-05-10T18:59:34.978Z,47.20
2017-05-10T19:02:04.535Z,46.00
2017-05-10T19:04:34.391Z,45.80
2017-05-10T19:07:04.186Z,46.30
2017-05-10T19:09:33.748Z,45.90
2017-05-10T19:12:03.315Z,46.60
2017-05-10T19:14:32.850Z,47.30
2017-05-10T19:17:02.395Z,47.50
2017-05-10T19:19:31.934Z,48.80
2017-05-10T19:22:01.491Z,49.50
2017-05-10T19:24:31.779Z,50.50
2017-05-10T19:27:01.323Z,50.40
2017-05-10T19:29:30.935Z,49.80
2017-05-10T19:32:00.503Z,49.50
2017-05-10T19:34:30.027Z,49.30
2017-05-10T19:37:00.351Z,49.20
2017-05-10T19:39:29.899Z,48.70
2017-05-10T19:41:59.430Z,49.30
2017-05-10T19:44:29.055Z,48.90
2017-05-10T19:46:58.586Z,49.20
2017-05-10T19:49:28.150Z,50.10
2017-05-10T19:51:57.694Z,49.80
2017-05-10T19:54:27.254Z,49.50
2017-05-10T19:56:56.782Z,49.50
2017-05-10T19:59:26.322Z,49.30
2017-05-10T20:01:55.858Z,50.10
2017-05-10T20:04:25.398Z,50.00
2017-05-10T20:06:54.934Z,50.10
2017-05-10T20:09:24.490Z,50.10
2017-05-10T20:11:54.035Z,50.30
2017-05-10T20:14:24.319Z,50.00
2017-05-10T20:16:53.873Z,50.50
2017-05-10T20:19:23.406Z,50.70
2017-05-10T20:21:52.949Z,50.40
2017-05-10T20:24:22.505Z,50.90
2017-05-10T20:26:52.046Z,50.80
2017-05-10T20:29:21.598Z,50.60
2017-05-10T20:31:51.134Z,51.10
2017-05-10T20:34:20.674Z,51.50
2017-05-10T20:36:50.206Z,51.70
2017-05-10T20:39:19.738Z,51.60
2017-05-10T20:41:49.286Z,51.90
2017-05-10T20:44:18.817Z,51.70
2017-05-10T20:46:48.341Z,52.10
2017-05-10T20:49:17.889Z,52.50
2017-05-10T20:51:47.413Z,53.20
2017-05-10T20:54:16.965Z,53.20
2017-05-10T20:56:46.498Z,52.80
2017-05-10T20:59:16.053Z,52.50
2017-05-10T21:01:45.885Z,52.90
2017-05-10T21:04:15.433Z,52.50
2017-05-10T21:06:44.969Z,52.50
2017-05-10T21:09:15.250Z,52.50
2017-05-10T21:11:44.791Z,52.40
2017-05-10T21:14:15.061Z,52.40
2017-05-10T21:16:44.601Z,52.00
2017-05-10T21:19:14.169Z,51.80
2017-05-10T21:21:43.701Z,52.60
2017-05-10T21:24:13.241Z,53.20
2017-05-10T21:26:43.521Z,53.30
2017-05-10T21:29:13.046Z,54.00
2017-05-10T21:31:42.601Z,54.00
2017-05-10T21:34:12.131Z,53.90
2017-05-10T21:36:41.656Z,53.70
2017-05-10T21:39:11.193Z,53.80
2017-05-10T21:41:41.576Z,53.70
2017-05-10T21:44:11.090Z,54.20
2017-05-10T21:46:40.613Z,54.30
2017-05-10T21:49:10.905Z,54.40
2017-05-10T21:51:40.441Z,55.00
2017-05-10T21:54:10.725Z,55.60
2017-05-10T21:56:40.248Z,55.60
2017-05-10T21:59:09.805Z,55.50
2017-05-10T22:01:39.333Z,55.20
2017-05-10T22:04:08.905Z,54.90
2017-05-10T22:06:39.281Z,54.90
2017-05-10T22:09:08.809Z,55.00
2017-05-10T22:11:39.081Z,55.50
2017-05-10T22:14:08.615Z,55.10
2017-05-10T22:16:38.176Z,55.70
2017-05-10T22:19:07.712Z,55.50
2017-05-10T22:21:37.253Z,55.90
2017-05-10T22:24:07.528Z,56.00
2017-05-10T22:26:37.101Z,56.10
2017-05-10T22:29:07.365Z,56.80
2017-05-10T22:31:36.924Z,57.10
2017-05-10T22:34:06.512Z,57.70
2017-05-10T22:36:36.141Z,57.20
2017-05-10T22:39:06.524Z,57.90
2017-05-10T22:41:36.113Z,57.50
2017-05-10T22:44:05.736Z,57.70
2017-05-10T22:46:35.280Z,57.70
2017-05-10T22:49:05.563Z,57.50
2017-05-10T22:51:35.100Z,57.30
2017-05-10T22:54:05.539Z,57.30
2017-05-10T22:56:35.072Z,57.30
2017-05-10T22:59:04.615Z,57.40
2017-05-10T23:01:34.144Z,57.50
2017-05-10T23:04:04.419Z,58.80
2017-05-10T23:06:33.961Z,57.90
2017-05-10T23:09:03.504Z,57.80
2017-05-10T23:11:33.467Z,58.00
2017-05-10T23:14:03.004Z,57.70
2017-05-10T23:16:33.280Z,58.50
2017-05-10T23:19:02.904Z,58.20
2017-05-10T23:21:32.452Z,58.70
2017-05-10T23:24:01.984Z,58.80
2017-05-10T23:26:31.543Z,58.60
2017-05-10T23:29:01.827Z,58.60
2017-05-10T23:31:31.420Z,58.40
2017-05-10T23:34:00.951Z,58.60
2017-05-10T23:36:30.568Z,58.50
2017-05-10T23:39:00.116Z,58.50
2017-05-10T23:41:29.784Z,58.80
2017-05-10T23:43:59.323Z,60.10
2017-05-10T23:46:28.887Z,60.30
2017-05-10T23:48:58.503Z,60.40
2017-05-10T23:51:28.104Z,61.10
2017-05-10T23:53:58.348Z,61.40
2017-05-10T23:56:28.651Z,61.30
2017-05-10T23:58:58.259Z,61.30
